Airfield :
LOGIN :

Register | Disclaimer

   EN    FR    IT 

 










Legend :    VFR   Marginal VFR   IFR   Intensive IFR   Very Intensive IFR
Visi :
Ceiling :
>= 8 km
>= 3000ft
5 to 8 km
1000 to 3000 ft
1500m to 5 km
500 to 1000 ft
800 to 1500m
200 to 500 ft
< 800m
< 200 ft
Symbols :   Thunderstorms  Fog  Heavy snow  Heavy precipitations  Wind > 20 kt
SIGMETs :     Misc.  Thunderstorms  Icing  Turbulence  Mountain Waves  Volcanic Ashes






- Airport Elevation : 16 ft
- IATA code : EAS


LESO - San Sebastian Fuenterrabia

CURRENT METAR :
  • 200900Z 23007KT 180V270 9999 FEW012 SCT025 15/13 Q1006

EXPIRED METARs :
  • 200830Z 23003KT 9999 SCT023 SCT050 14/13 Q1006
  • 200800Z 22007KT 190V260 9000 -DZ FEW014 BKN023 14/13 Q1006
  • 200730Z 24008KT 210V280 7000 FEW013 BKN018 14/13 Q1005
  • 200700Z 24008KT 200V290 6000 -RA SCT010 BKN018 14/13 Q1005
  • 200630Z 24010KT 200V300 7000 RA SCT013 SCT025 13/13 Q1004

TAF TAF LESO
Valid from the 20 at 06:00 until the 21 at 06:00 UTC


200500Z 2006/2106 25009KT 9999 -RA SCT015 BKN030 TX16/2014Z TN11/2106Z
TEMPO 2006/2021 3000 RA SHRA BKN010 BKN014 SCT025TCU
PROB40
TEMPO 2006/2015 1500 +RA BKN005 BKN010
PROB40
TEMPO 2006/2024 SHRA TS SCT025TCU SCT030CB
TEMPO 2006/2021 25015G25KT



MET'MAP, your aeronautical weather chart ! - Copyright ORBIFLY December 2007 - Disclaimer

ORBIFLY MET'MAP TEAM :

Programming & Development : Alexandra Zaïnal
Concept & Development : Baudouin d'Aumeries
Co-Development & Prog : Marc-Olivier Méhu
Technical & hardware support : Manuel Goepfert

Contact : metmap@orbifly.com




SOURCES & CREDITS :

   NOAA